sensor_id;sensor_type;location;lat;lon;timestamp;P1;durP1;ratioP1;P2;durP2;ratioP2
34521;SDS011;25561;48.888;8.736;2022-08-04T05:33:03;2.88;;;2.10;;
34521;SDS011;25561;48.888;8.736;2022-08-04T05:36:10;3.80;;;2.10;;
34521;SDS011;25561;48.888;8.736;2022-08-04T05:39:40;5.88;;;2.15;;
34521;SDS011;25561;48.888;8.736;2022-08-04T05:42:47;5.95;;;2.40;;
34521;SDS011;25561;48.888;8.736;2022-08-04T05:45:50;5.82;;;1.95;;
34521;SDS011;25561;48.888;8.736;2022-08-04T05:48:53;3.60;;;2.10;;
34521;SDS011;25561;48.888;8.736;2022-08-04T05:51:57;10.38;;;2.40;;
34521;SDS011;25561;48.888;8.736;2022-08-04T05:55:01;6.25;;;2.20;;
34521;SDS011;25561;48.888;8.736;2022-08-04T05:58:04;3.33;;;1.95;;
34521;SDS011;25561;48.888;8.736;2022-08-04T06:01:07;5.43;;;2.60;;
34521;SDS011;25561;48.888;8.736;2022-08-04T06:04:10;7.07;;;2.50;;
34521;SDS011;25561;48.888;8.736;2022-08-04T06:07:16;3.88;;;2.60;;
34521;SDS011;25561;48.888;8.736;2022-08-04T06:10:18;10.15;;;4.25;;
34521;SDS011;25561;48.888;8.736;2022-08-04T06:50:09;12.98;;;2.78;;
34521;SDS011;25561;48.888;8.736;2022-08-04T06:53:32;12.30;;;3.30;;
34521;SDS011;25561;48.888;8.736;2022-08-04T06:56:34;4.80;;;3.05;;
34521;SDS011;25561;48.888;8.736;2022-08-04T06:59:41;9.35;;;3.00;;
34521;SDS011;25561;48.888;8.736;2022-08-04T07:02:47;6.03;;;3.00;;
34521;SDS011;25561;48.888;8.736;2022-08-04T07:05:51;5.20;;;3.03;;
34521;SDS011;25561;48.888;8.736;2022-08-04T07:08:53;7.28;;;3.20;;
34521;SDS011;25561;48.888;8.736;2022-08-04T07:11:56;5.90;;;2.80;;
34521;SDS011;25561;48.888;8.736;2022-08-04T07:14:59;9.40;;;3.13;;
34521;SDS011;25561;48.888;8.736;2022-08-04T07:18:01;8.18;;;3.60;;
34521;SDS011;25561;48.888;8.736;2022-08-04T07:21:05;8.50;;;3.20;;
34521;SDS011;25561;48.888;8.736;2022-08-04T07:24:08;3.35;;;2.80;;
34521;SDS011;25561;48.888;8.736;2022-08-04T07:27:10;4.68;;;3.15;;
34521;SDS011;25561;48.888;8.736;2022-08-04T07:30:12;7.88;;;3.03;;
34521;SDS011;25561;48.888;8.736;2022-08-04T07:33:16;5.90;;;3.03;;
34521;SDS011;25561;48.888;8.736;2022-08-04T07:36:18;3.42;;;2.78;;
34521;SDS011;25561;48.888;8.736;2022-08-04T07:39:20;3.65;;;2.47;;
34521;SDS011;25561;48.888;8.736;2022-08-04T07:42:29;3.90;;;2.70;;
34521;SDS011;25561;48.888;8.736;2022-08-04T07:45:31;3.30;;;3.00;;
34521;SDS011;25561;48.888;8.736;2022-08-04T07:48:33;5.20;;;2.70;;
34521;SDS011;25561;48.888;8.736;2022-08-04T07:51:35;6.50;;;3.20;;
34521;SDS011;25561;48.888;8.736;2022-08-04T07:54:38;5.63;;;3.08;;
34521;SDS011;25561;48.888;8.736;2022-08-04T07:57:40;12.65;;;4.18;;
34521;SDS011;25561;48.888;8.736;2022-08-04T08:00:43;32.60;;;4.55;;
34521;SDS011;25561;48.888;8.736;2022-08-04T08:03:47;10.20;;;3.58;;
34521;SDS011;25561;48.888;8.736;2022-08-04T08:06:51;6.45;;;3.22;;
34521;SDS011;25561;48.888;8.736;2022-08-04T08:09:52;4.88;;;2.55;;
34521;SDS011;25561;48.888;8.736;2022-08-04T08:12:54;6.25;;;2.78;;
34521;SDS011;25561;48.888;8.736;2022-08-04T08:15:56;12.32;;;3.55;;
34521;SDS011;25561;48.888;8.736;2022-08-04T08:19:00;14.23;;;3.23;;
34521;SDS011;25561;48.888;8.736;2022-08-04T08:22:02;6.18;;;2.90;;
34521;SDS011;25561;48.888;8.736;2022-08-04T08:25:05;14.40;;;3.05;;
34521;SDS011;25561;48.888;8.736;2022-08-04T08:28:07;8.50;;;2.70;;
34521;SDS011;25561;48.888;8.736;2022-08-04T08:31:10;6.97;;;3.20;;
34521;SDS011;25561;48.888;8.736;2022-08-04T08:34:11;8.75;;;3.00;;
34521;SDS011;25561;48.888;8.736;2022-08-04T08:37:31;8.00;;;2.95;;
34521;SDS011;25561;48.888;8.736;2022-08-04T08:48:23;6.40;;;3.10;;
34521;SDS011;25561;48.888;8.736;2022-08-04T08:55:11;11.38;;;3.30;;
34521;SDS011;25561;48.888;8.736;2022-08-04T09:02:16;7.38;;;2.78;;
34521;SDS011;25561;48.888;8.736;2022-08-04T09:05:37;11.95;;;3.38;;
34521;SDS011;25561;48.888;8.736;2022-08-04T09:09:28;4.45;;;2.97;;
34521;SDS011;25561;48.888;8.736;2022-08-04T09:12:14;7.72;;;2.70;;
34521;SDS011;25561;48.888;8.736;2022-08-04T09:15:51;3.75;;;2.72;;
34521;SDS011;25561;48.888;8.736;2022-08-04T09:25:49;4.80;;;3.08;;
34521;SDS011;25561;48.888;8.736;2022-08-04T09:29:16;6.32;;;2.80;;
34521;SDS011;25561;48.888;8.736;2022-08-04T09:32:57;5.85;;;3.05;;
34521;SDS011;25561;48.888;8.736;2022-08-04T09:35:57;4.93;;;3.00;;
34521;SDS011;25561;48.888;8.736;2022-08-04T09:39:28;7.03;;;2.78;;
34521;SDS011;25561;48.888;8.736;2022-08-04T09:42:47;5.10;;;3.22;;
34521;SDS011;25561;48.888;8.736;2022-08-04T09:45:59;6.28;;;2.50;;
34521;SDS011;25561;48.888;8.736;2022-08-04T09:49:41;5.10;;;3.70;;
34521;SDS011;25561;48.888;8.736;2022-08-04T09:52:40;6.65;;;2.75;;
34521;SDS011;25561;48.888;8.736;2022-08-04T09:59:24;6.95;;;2.55;;
34521;SDS011;25561;48.888;8.736;2022-08-04T10:02:31;6.45;;;2.80;;
34521;SDS011;25561;48.888;8.736;2022-08-04T10:05:47;7.20;;;2.67;;
34521;SDS011;25561;48.888;8.736;2022-08-04T10:09:08;3.20;;;2.75;;
34521;SDS011;25561;48.888;8.736;2022-08-04T10:15:27;5.13;;;3.05;;
34521;SDS011;25561;48.888;8.736;2022-08-04T10:18:57;3.20;;;2.90;;
34521;SDS011;25561;48.888;8.736;2022-08-04T10:22:13;3.58;;;2.67;;
34521;SDS011;25561;48.888;8.736;2022-08-04T10:26:01;4.72;;;3.28;;
34521;SDS011;25561;48.888;8.736;2022-08-04T10:29:15;2.85;;;2.65;;
34521;SDS011;25561;48.888;8.736;2022-08-04T10:32:25;3.13;;;2.63;;
34521;SDS011;25561;48.888;8.736;2022-08-04T10:35:34;3.88;;;2.65;;
34521;SDS011;25561;48.888;8.736;2022-08-04T10:38:47;3.08;;;2.80;;
34521;SDS011;25561;48.888;8.736;2022-08-04T10:42:09;3.92;;;2.63;;
34521;SDS011;25561;48.888;8.736;2022-08-04T10:45:22;2.97;;;2.42;;
34521;SDS011;25561;48.888;8.736;2022-08-04T10:48:59;3.03;;;2.75;;
34521;SDS011;25561;48.888;8.736;2022-08-04T10:52:10;4.72;;;2.78;;
34521;SDS011;25561;48.888;8.736;2022-08-04T10:55:22;3.85;;;2.35;;
34521;SDS011;25561;48.888;8.736;2022-08-04T10:58:55;4.25;;;2.35;;
34521;SDS011;25561;48.888;8.736;2022-08-04T11:02:00;3.88;;;2.88;;
34521;SDS011;25561;48.888;8.736;2022-08-04T11:05:21;3.45;;;2.40;;
34521;SDS011;25561;48.888;8.736;2022-08-04T11:08:33;4.13;;;2.45;;
34521;SDS011;25561;48.888;8.736;2022-08-04T11:11:40;2.85;;;2.20;;
34521;SDS011;25561;48.888;8.736;2022-08-04T11:15:35;5.15;;;2.60;;
34521;SDS011;25561;48.888;8.736;2022-08-04T11:18:34;6.40;;;2.38;;
34521;SDS011;25561;48.888;8.736;2022-08-04T11:21:59;2.85;;;2.53;;
34521;SDS011;25561;48.888;8.736;2022-08-04T11:25:12;3.15;;;2.40;;
34521;SDS011;25561;48.888;8.736;2022-08-04T11:28:23;3.13;;;2.72;;
34521;SDS011;25561;48.888;8.736;2022-08-04T11:31:47;2.85;;;2.35;;
34521;SDS011;25561;48.888;8.736;2022-08-04T11:34:53;2.42;;;2.22;;
34521;SDS011;25561;48.888;8.736;2022-08-04T11:38:05;7.47;;;3.00;;
34521;SDS011;25561;48.888;8.736;2022-08-04T11:41:34;4.70;;;2.67;;
34521;SDS011;25561;48.888;8.736;2022-08-04T11:44:46;4.45;;;2.92;;
34521;SDS011;25561;48.888;8.736;2022-08-04T11:48:31;7.72;;;2.78;;
34521;SDS011;25561;48.888;8.736;2022-08-04T11:51:17;4.97;;;2.20;;
34521;SDS011;25561;48.888;8.736;2022-08-04T11:54:21;4.80;;;2.30;;
34521;SDS011;25561;48.888;8.736;2022-08-04T11:57:23;3.65;;;2.28;;
34521;SDS011;25561;48.888;8.736;2022-08-04T12:00:37;15.37;;;3.50;;
34521;SDS011;25561;48.888;8.736;2022-08-04T12:04:02;2.45;;;2.00;;
34521;SDS011;25561;48.888;8.736;2022-08-04T12:07:16;2.58;;;1.83;;
34521;SDS011;25561;48.888;8.736;2022-08-04T12:10:41;4.43;;;2.42;;
34521;SDS011;25561;48.888;8.736;2022-08-04T12:17:28;3.38;;;2.28;;
34521;SDS011;25561;48.888;8.736;2022-08-04T12:20:58;3.05;;;2.13;;
34521;SDS011;25561;48.888;8.736;2022-08-04T12:24:05;5.82;;;2.47;;
34521;SDS011;25561;48.888;8.736;2022-08-04T12:27:28;4.03;;;2.03;;
34521;SDS011;25561;48.888;8.736;2022-08-04T12:30:34;2.97;;;2.10;;
34521;SDS011;25561;48.888;8.736;2022-08-04T12:34:03;4.25;;;1.98;;
34521;SDS011;25561;48.888;8.736;2022-08-04T12:40:40;8.18;;;2.22;;
34521;SDS011;25561;48.888;8.736;2022-08-04T12:43:47;3.70;;;2.00;;
34521;SDS011;25561;48.888;8.736;2022-08-04T12:46:50;4.30;;;1.80;;
34521;SDS011;25561;48.888;8.736;2022-08-04T12:49:53;3.00;;;2.00;;
34521;SDS011;25561;48.888;8.736;2022-08-04T12:53:09;5.65;;;2.38;;
34521;SDS011;25561;48.888;8.736;2022-08-04T12:56:23;4.15;;;1.77;;
34521;SDS011;25561;48.888;8.736;2022-08-04T12:59:27;2.83;;;2.20;;
34521;SDS011;25561;48.888;8.736;2022-08-04T13:02:29;4.72;;;2.45;;
34521;SDS011;25561;48.888;8.736;2022-08-04T13:05:37;8.45;;;2.72;;
34521;SDS011;25561;48.888;8.736;2022-08-04T13:08:42;2.67;;;2.30;;
34521;SDS011;25561;48.888;8.736;2022-08-04T13:11:53;5.38;;;2.38;;
34521;SDS011;25561;48.888;8.736;2022-08-04T13:14:59;3.45;;;2.60;;
34521;SDS011;25561;48.888;8.736;2022-08-04T13:18:18;2.60;;;2.17;;
34521;SDS011;25561;48.888;8.736;2022-08-04T13:21:21;6.68;;;2.30;;
34521;SDS011;25561;48.888;8.736;2022-08-04T13:28:15;4.80;;;2.40;;
34521;SDS011;25561;48.888;8.736;2022-08-04T13:31:27;4.68;;;2.17;;
34521;SDS011;25561;48.888;8.736;2022-08-04T13:34:39;5.35;;;2.03;;
34521;SDS011;25561;48.888;8.736;2022-08-04T13:37:49;6.67;;;2.20;;
34521;SDS011;25561;48.888;8.736;2022-08-04T13:40:53;4.63;;;2.13;;
34521;SDS011;25561;48.888;8.736;2022-08-04T13:43:59;4.15;;;2.00;;
34521;SDS011;25561;48.888;8.736;2022-08-04T13:47:21;2.25;;;1.88;;
34521;SDS011;25561;48.888;8.736;2022-08-04T13:50:29;2.85;;;1.90;;
34521;SDS011;25561;48.888;8.736;2022-08-04T13:53:32;2.13;;;1.92;;
34521;SDS011;25561;48.888;8.736;2022-08-04T13:56:37;3.60;;;2.13;;
34521;SDS011;25561;48.888;8.736;2022-08-04T13:59:43;7.72;;;2.38;;
34521;SDS011;25561;48.888;8.736;2022-08-04T14:02:49;2.58;;;2.17;;
34521;SDS011;25561;48.888;8.736;2022-08-04T14:09:25;4.00;;;1.90;;
34521;SDS011;25561;48.888;8.736;2022-08-04T14:12:41;3.50;;;1.95;;
34521;SDS011;25561;48.888;8.736;2022-08-04T14:15:46;6.10;;;2.00;;
34521;SDS011;25561;48.888;8.736;2022-08-04T14:19:04;3.17;;;2.00;;
34521;SDS011;25561;48.888;8.736;2022-08-04T14:22:07;4.05;;;2.17;;
34521;SDS011;25561;48.888;8.736;2022-08-04T14:25:15;2.88;;;2.10;;
34521;SDS011;25561;48.888;8.736;2022-08-04T14:28:33;2.20;;;2.00;;
34521;SDS011;25561;48.888;8.736;2022-08-04T14:32:03;3.30;;;2.08;;
34521;SDS011;25561;48.888;8.736;2022-08-04T14:35:14;3.28;;;2.00;;
34521;SDS011;25561;48.888;8.736;2022-08-04T14:38:16;6.32;;;2.35;;
34521;SDS011;25561;48.888;8.736;2022-08-04T14:41:19;4.57;;;1.98;;
34521;SDS011;25561;48.888;8.736;2022-08-04T14:44:30;1.67;;;1.58;;
34521;SDS011;25561;48.888;8.736;2022-08-04T14:47:40;3.97;;;2.08;;
34521;SDS011;25561;48.888;8.736;2022-08-04T14:50:53;3.85;;;2.38;;
34521;SDS011;25561;48.888;8.736;2022-08-04T14:53:55;2.40;;;1.90;;
34521;SDS011;25561;48.888;8.736;2022-08-04T14:56:59;3.78;;;2.20;;
34521;SDS011;25561;48.888;8.736;2022-08-04T15:00:02;1.95;;;1.80;;
34521;SDS011;25561;48.888;8.736;2022-08-04T15:03:11;2.42;;;1.98;;
34521;SDS011;25561;48.888;8.736;2022-08-04T15:06:14;6.28;;;2.70;;
34521;SDS011;25561;48.888;8.736;2022-08-04T15:09:22;2.13;;;1.88;;
34521;SDS011;25561;48.888;8.736;2022-08-04T15:12:24;2.97;;;1.92;;
34521;SDS011;25561;48.888;8.736;2022-08-04T15:15:26;6.82;;;2.50;;
34521;SDS011;25561;48.888;8.736;2022-08-04T15:18:37;3.65;;;2.08;;
34521;SDS011;25561;48.888;8.736;2022-08-04T15:21:40;3.83;;;2.10;;
34521;SDS011;25561;48.888;8.736;2022-08-04T15:24:42;4.43;;;2.08;;
34521;SDS011;25561;48.888;8.736;2022-08-04T15:27:52;3.50;;;2.10;;
34521;SDS011;25561;48.888;8.736;2022-08-04T15:30:55;3.67;;;2.00;;
34521;SDS011;25561;48.888;8.736;2022-08-04T15:33:57;5.05;;;1.85;;
34521;SDS011;25561;48.888;8.736;2022-08-04T15:36:59;2.33;;;2.13;;
34521;SDS011;25561;48.888;8.736;2022-08-04T15:40:08;2.33;;;1.70;;
34521;SDS011;25561;48.888;8.736;2022-08-04T15:50:07;4.05;;;2.35;;
34521;SDS011;25561;48.888;8.736;2022-08-04T15:53:10;2.72;;;2.08;;
34521;SDS011;25561;48.888;8.736;2022-08-04T16:00:03;3.35;;;2.10;;
